Time;durP1;ratioP1;P1;durP2;ratioP2;P2;SDS_P1;SDS_P2;PMS_P1;PMS_P2;Temp;Humidity;BMP_temperature;BMP_pressure;BME280_temperature;BME280_humidity;BME280_pressure;Samples;Min_cycle;Max_cycle;Signal;HPM_P1;HPM_P2
2021/12/18 00:00:39;;;;;;;12.07;2.60;;;7.30;99.90;;;;;;5092335;28;20196;-72
2021/12/18 00:03:06;;;;;;;8.25;2.25;;;7.00;99.90;;;;;;5092279;28;20490;-72
2021/12/18 00:05:32;;;;;;;8.82;2.80;;;7.10;99.90;;;;;;5093208;28;20049;-73
2021/12/18 00:07:58;;;;;;;12.07;2.47;;;7.00;99.90;;;;;;5092070;28;20043;-72
2021/12/18 00:10:24;;;;;;;10.23;2.28;;;6.70;99.90;;;;;;5094580;28;20038;-72
2021/12/18 00:12:51;;;;;;;11.73;2.30;;;6.90;99.90;;;;;;5094673;28;20400;-73
2021/12/18 00:15:17;;;;;;;10.05;2.72;;;8.00;99.90;;;;;;5093905;28;20027;-73
2021/12/18 00:17:43;;;;;;;16.80;2.88;;;7.80;99.90;;;;;;5095554;28;20044;-73
2021/12/18 00:20:10;;;;;;;10.73;2.63;;;6.60;99.90;;;;;;5094944;28;20499;-73
2021/12/18 00:22:36;;;;;;;14.90;2.40;;;7.00;99.90;;;;;;5094470;28;20040;-73
2021/12/18 00:25:03;;;;;;;8.60;2.53;;;8.30;99.90;;;;;;5094658;28;20179;-74
2021/12/18 00:27:29;;;;;;;8.65;2.38;;;7.10;99.90;;;;;;5089223;28;20048;-73
2021/12/18 00:29:54;;;;;;;12.10;3.20;;;7.00;99.90;;;;;;5094333;28;20089;-73
2021/12/18 00:32:20;;;;;;;12.05;2.63;;;7.10;99.90;;;;;;5094419;28;20046;-72
2021/12/18 00:34:47;;;;;;;8.75;2.10;;;7.20;99.90;;;;;;5078159;28;20116;-73
2021/12/18 00:37:12;;;;;;;8.05;3.13;;;7.70;99.90;;;;;;5094039;28;20472;-73
2021/12/18 00:39:45;;;;;;;9.95;2.58;;;7.10;99.90;;;;;;5078056;28;20054;-74
2021/12/18 00:42:35;;;;;;;9.05;2.15;;;7.20;99.90;;;;;;5070652;28;20044;-73
2021/12/18 00:45:02;;;;;;;10.10;2.40;;;9.10;99.90;;;;;;5074027;28;20496;-73
2021/12/18 00:47:28;;;;;;;8.48;2.10;;;7.00;99.90;;;;;;5079519;28;20118;-73
2021/12/18 00:49:53;;;;;;;7.97;2.58;;;7.20;99.90;;;;;;5077082;28;20131;-72
2021/12/18 00:52:19;;;;;;;7.93;1.95;;;7.00;99.90;;;;;;5094309;28;20122;-73
2021/12/18 00:54:44;;;;;;;7.15;2.08;;;7.90;99.90;;;;;;5078082;28;20499;-74
2021/12/18 00:57:10;;;;;;;9.70;1.65;;;7.60;99.90;;;;;;5075820;28;20499;-72
2021/12/18 00:59:36;;;;;;;6.70;1.42;;;7.70;99.90;;;;;;5094683;28;20123;-73
2021/12/18 01:02:02;;;;;;;5.55;1.45;;;7.10;99.90;;;;;;5094358;28;20046;-72
2021/12/18 01:04:28;;;;;;;9.00;2.20;;;7.10;99.90;;;;;;5077266;28;20412;-73
2021/12/18 01:06:53;;;;;;;8.70;2.00;;;7.10;99.90;;;;;;5094313;28;20487;-73
2021/12/18 01:09:27;;;;;;;6.20;1.60;;;6.80;99.90;;;;;;5094329;28;20089;-72
2021/12/18 01:11:52;;;;;;;7.18;1.90;;;6.80;99.90;;;;;;5092960;28;20048;-73
2021/12/18 01:25:03;;;;;;;12.75;2.70;;;6.60;99.90;;;;;;5093045;28;20050;-73
2021/12/18 01:27:29;;;;;;;6.70;2.13;;;6.80;99.90;;;;;;5065307;28;20048;-73
2021/12/18 01:29:55;;;;;;;7.38;2.25;;;6.70;99.90;;;;;;5074010;28;20051;-73
2021/12/18 01:32:21;;;;;;;6.88;1.75;;;6.70;99.90;;;;;;5074162;28;20135;-73
2021/12/18 01:34:48;;;;;;;7.85;1.77;;;6.70;99.90;;;;;;5094523;28;20051;-73
2021/12/18 01:37:14;;;;;;;8.35;1.83;;;6.70;99.90;;;;;;5077182;28;20118;-73
2021/12/18 01:39:39;;;;;;;9.40;1.70;;;6.80;99.90;;;;;;5093794;28;20118;-73
2021/12/18 01:52:41;;;;;;;10.75;2.83;;;6.60;99.90;;;;;;5093530;28;20058;-73
2021/12/18 01:55:09;;;;;;;31.08;4.20;;;6.70;99.90;;;;;;5093340;28;20043;-72
2021/12/18 01:57:35;;;;;;;34.33;5.93;;;6.80;99.90;;;;;;5076741;28;20040;-73
2021/12/18 02:00:00;;;;;;;20.10;5.70;;;6.60;99.90;;;;;;5092689;28;20118;-73
2021/12/18 02:02:26;;;;;;;14.30;4.32;;;6.80;99.90;;;;;;5093774;28;20047;-73
2021/12/18 02:04:52;;;;;;;20.55;3.95;;;6.70;99.90;;;;;;5076753;28;20039;-72
2021/12/18 02:07:18;;;;;;;9.75;3.05;;;6.70;99.90;;;;;;5076274;28;20127;-73
2021/12/18 02:10:06;;;;;;;10.32;3.10;;;6.80;99.90;;;;;;5081120;28;20392;-73
2021/12/18 02:12:43;;;;;;;7.75;2.95;;;6.70;99.90;;;;;;5078408;28;20071;-73
2021/12/18 02:20:45;;;;;;;7.90;1.92;;;6.60;99.90;;;;;;5109697;28;20078;-72
2021/12/18 02:23:11;;;;;;;6.13;1.90;;;6.80;99.90;;;;;;5097219;28;20557;-74
2021/12/18 02:25:37;;;;;;;12.23;3.67;;;7.40;99.90;;;;;;5093417;28;20032;-73
2021/12/18 02:28:14;;;;;;;9.70;2.92;;;6.70;99.90;;;;;;5076006;28;20059;-73
2021/12/18 02:30:40;;;;;;;8.38;2.90;;;6.90;99.90;;;;;;5094272;28;20040;-73
2021/12/18 02:33:06;;;;;;;17.48;3.22;;;6.80;99.90;;;;;;5078668;28;20046;-71
2021/12/18 02:35:37;;;;;;;11.93;2.90;;;6.70;99.90;;;;;;5110433;28;20043;-71
2021/12/18 02:38:29;;;;;;;7.53;2.85;;;6.90;99.90;;;;;;5079523;28;20057;-73
2021/12/18 02:41:12;;;;;;;6.93;2.83;;;6.90;99.90;;;;;;5096894;28;20052;-73
2021/12/18 02:43:39;;;;;;;8.60;2.78;;;9.90;99.90;;;;;;5096479;28;20043;-73
2021/12/18 02:46:08;;;;;;;11.05;3.40;;;7.10;99.90;;;;;;5079723;28;20047;-73
2021/12/18 02:48:38;;;;;;;19.63;4.85;;;6.70;99.90;;;;;;5078958;28;20050;-73
2021/12/18 02:51:06;;;;;;;19.73;6.43;;;7.10;99.90;;;;;;5112730;28;20047;-73
2021/12/18 02:53:33;;;;;;;22.25;6.40;;;7.00;99.90;;;;;;5097110;28;20071;-73
2021/12/18 02:56:03;;;;;;;18.45;5.60;;;7.40;99.90;;;;;;5095367;28;20088;-73
2021/12/18 02:58:29;;;;;;;17.60;5.50;;;7.10;99.90;;;;;;5096743;28;20039;-73
2021/12/18 03:00:57;;;;;;;20.60;5.53;;;7.40;99.90;;;;;;5079886;28;20036;-73
2021/12/18 03:03:32;;;;;;;19.00;6.00;;;6.70;99.90;;;;;;5079228;28;20197;-73
2021/12/18 03:06:36;;;;;;;15.98;6.28;;;7.20;99.90;;;;;;5096328;28;20047;-73
2021/12/18 03:25:03;;;;;;;13.52;4.65;;;;;;;;;;5095434;28;20085;-73
2021/12/18 03:27:29;;;;;;;10.10;5.03;;;7.30;99.90;;;;;;5095325;28;20074;-73
2021/12/18 03:29:55;;;;;;;14.63;5.93;;;7.20;99.90;;;;;;5079362;28;20051;-73
2021/12/18 03:32:22;;;;;;;12.07;4.88;;;7.40;99.90;;;;;;5095375;28;20122;-73
2021/12/18 03:34:49;;;;;;;12.13;5.30;;;7.70;99.90;;;;;;5079019;28;20045;-73
2021/12/18 03:37:14;;;;;;;10.60;4.43;;;7.20;99.90;;;;;;5096149;28;20058;-73
2021/12/18 03:39:41;;;;;;;13.80;4.78;;;7.20;99.90;;;;;;5096018;28;20039;-73
2021/12/18 03:42:07;;;;;;;10.10;4.75;;;7.40;99.90;;;;;;5094783;28;20151;-73
2021/12/18 03:44:34;;;;;;;13.85;4.57;;;7.40;99.90;;;;;;5096253;28;20039;-73
2021/12/18 03:47:00;;;;;;;10.73;3.75;;;;;;;;;;5077928;28;20050;-73
2021/12/18 03:49:26;;;;;;;11.25;4.30;;;7.40;99.90;;;;;;5093000;28;20126;-73
2021/12/18 03:51:52;;;;;;;9.55;3.58;;;7.70;99.90;;;;;;5075384;28;20123;-73
2021/12/18 03:54:17;;;;;;;8.98;3.90;;;9.40;99.90;;;;;;5091434;28;20036;-73
2021/12/18 03:56:43;;;;;;;10.63;4.10;;;7.90;99.90;;;;;;5107414;28;20039;-73
2021/12/18 03:59:09;;;;;;;9.43;3.83;;;7.70;99.90;;;;;;5093834;28;20032;-72
2021/12/18 04:01:35;;;;;;;9.70;3.55;;;8.00;99.90;;;;;;5106659;28;20113;-73
2021/12/18 04:04:01;;;;;;;13.13;4.85;;;7.10;99.90;;;;;;5095109;28;20553;-73
2021/12/18 04:06:27;;;;;;;7.32;3.10;;;7.40;99.90;;;;;;5095170;28;20046;-72
2021/12/18 04:08:53;;;;;;;7.32;2.65;;;;;;;;;;5095202;28;20520;-72
2021/12/18 04:11:20;;;;;;;5.75;2.03;;;7.60;99.90;;;;;;5094569;28;20546;-73
2021/12/18 04:13:47;;;;;;;6.30;2.17;;;;;;;;;;5078194;28;20341;-72
2021/12/18 04:16:13;;;;;;;6.07;2.38;;;7.70;99.90;;;;;;5078466;28;20043;-73
2021/12/18 04:18:39;;;;;;;5.38;2.28;;;8.20;99.90;;;;;;5095470;28;20054;-73
2021/12/18 04:21:06;;;;;;;7.55;2.45;;;;;;;;;;5093750;28;20035;-73
2021/12/18 04:23:31;;;;;;;8.45;1.92;;;7.40;99.90;;;;;;5077551;28;20035;-73
2021/12/18 04:25:57;;;;;;;6.13;2.25;;;7.60;99.90;;;;;;5095182;28;20128;-73
2021/12/18 04:28:24;;;;;;;6.40;2.40;;;9.70;99.90;;;;;;5077445;28;20051;-73
2021/12/18 04:30:50;;;;;;;5.03;2.00;;;7.40;99.90;;;;;;5094477;28;20108;-72
2021/12/18 04:33:16;;;;;;;9.23;2.90;;;7.30;99.90;;;;;;5095110;28;20039;-72
2021/12/18 04:35:41;;;;;;;10.40;3.58;;;7.10;99.90;;;;;;5094066;28;20513;-73
2021/12/18 04:38:07;;;;;;;9.82;3.13;;;7.10;99.90;;;;;;5089914;28;20119;-72
2021/12/18 04:40:34;;;;;;;10.63;3.30;;;7.60;99.90;;;;;;5074991;28;20101;-73
2021/12/18 04:43:01;;;;;;;9.85;3.33;;;7.60;99.90;;;;;;5073490;28;20040;-72
2021/12/18 04:45:27;;;;;;;10.73;3.67;;;7.30;99.90;;;;;;5074351;28;20051;-72
2021/12/18 04:47:54;;;;;;;7.28;2.75;;;7.10;99.90;;;;;;5074475;28;20044;-72
2021/12/18 04:50:19;;;;;;;8.48;3.60;;;7.30;99.90;;;;;;5082978;28;20042;-72
2021/12/18 04:52:45;;;;;;;10.98;3.75;;;7.30;99.90;;;;;;5094942;28;20118;-72
2021/12/18 04:55:11;;;;;;;10.65;4.10;;;7.60;99.90;;;;;;5094002;28;20040;-72
2021/12/18 04:57:37;;;;;;;14.30;4.43;;;7.40;99.90;;;;;;5094699;28;20048;-72
2021/12/18 05:00:05;;;;;;;10.32;3.80;;;7.50;99.90;;;;;;5094175;28;20043;-72
2021/12/18 05:02:41;;;;;;;11.27;3.83;;;;;;;;;;5094150;28;20165;-72
2021/12/18 05:05:09;;;;;;;11.77;4.32;;;7.30;99.90;;;;;;5094179;28;20396;-72
2021/12/18 05:07:35;;;;;;;11.07;3.70;;;7.60;99.90;;;;;;5094585;28;20040;-73
2021/12/18 05:10:03;;;;;;;15.77;4.97;;;7.10;99.90;;;;;;5079153;28;20055;-73
2021/12/18 05:12:29;;;;;;;9.18;4.15;;;7.10;99.90;;;;;;5091146;28;20126;-72
2021/12/18 05:14:54;;;;;;;12.90;4.70;;;7.30;99.90;;;;;;5074467;28;20192;-73
2021/12/18 05:17:20;;;;;;;12.80;4.85;;;7.40;99.90;;;;;;5107447;28;20032;-73
2021/12/18 05:19:46;;;;;;;19.02;7.03;;;;;;;;;;5093145;28;20496;-73
2021/12/18 05:22:12;;;;;;;13.43;5.28;;;8.00;99.90;;;;;;5094400;28;20075;-73
2021/12/18 05:24:37;;;;;;;11.93;5.05;;;7.40;99.90;;;;;;5085062;28;20160;-73
2021/12/18 05:27:04;;;;;;;15.38;5.68;;;7.70;99.90;;;;;;5090824;28;20173;-73
2021/12/18 05:29:30;;;;;;;13.57;5.95;;;7.50;99.90;;;;;;5091330;28;20510;-73
2021/12/18 05:31:56;;;;;;;10.60;4.60;;;7.30;99.90;;;;;;5089958;28;20094;-73
2021/12/18 05:34:24;;;;;;;20.33;7.70;;;7.20;99.90;;;;;;5092120;28;20075;-73
2021/12/18 05:39:25;;;;;;;18.15;6.85;;;7.60;99.90;;;;;;5093528;28;20059;-73
2021/12/18 05:41:51;;;;;;;23.52;8.98;;;7.80;99.90;;;;;;5093794;28;20480;-73
2021/12/18 05:44:23;;;;;;;18.55;6.93;;;7.50;99.90;;;;;;5097180;28;20147;-73
2021/12/18 05:46:49;;;;;;;13.80;5.75;;;7.40;99.90;;;;;;5078945;28;20036;-72
2021/12/18 05:49:16;;;;;;;14.07;5.80;;;7.30;99.90;;;;;;5080341;28;20044;-72
2021/12/18 05:51:43;;;;;;;16.67;5.75;;;7.70;99.90;;;;;;5096532;28;20400;-72
2021/12/18 05:54:09;;;;;;;12.02;5.95;;;;;;;;;;5097468;28;20050;-75
2021/12/18 05:56:35;;;;;;;16.45;6.20;;;7.50;99.90;;;;;;5098226;28;20612;-73
2021/12/18 05:59:01;;;;;;;14.38;6.07;;;7.50;99.90;;;;;;5097531;28;20055;-75
2021/12/18 06:01:27;;;;;;;15.48;5.80;;;7.50;99.90;;;;;;5098059;28;20061;-75
2021/12/18 06:03:53;;;;;;;17.55;5.82;;;7.50;99.90;;;;;;5097838;28;20058;-73
2021/12/18 06:06:21;;;;;;;14.93;6.18;;;7.90;99.90;;;;;;5079977;28;20119;-77
2021/12/18 06:08:47;;;;;;;12.48;5.60;;;7.90;99.90;;;;;;5098056;28;20071;-76
2021/12/18 06:11:16;;;;;;;14.57;5.72;;;7.90;99.90;;;;;;5097811;28;20458;-77
2021/12/18 06:13:46;;;;;;;21.10;7.50;;;7.70;99.90;;;;;;5097766;28;20434;-70
2021/12/18 06:16:13;;;;;;;15.52;6.03;;;;;;;;;;5097227;28;20040;-75
2021/12/18 06:18:47;;;;;;;17.40;6.82;;;7.50;99.90;;;;;;5097955;28;20054;-79
2021/12/18 06:21:13;;;;;;;14.18;5.95;;;8.30;99.90;;;;;;5096498;28;20043;-74
2021/12/18 06:23:43;;;;;;;17.98;5.43;;;7.70;99.90;;;;;;5098007;28;20039;-73
2021/12/18 06:26:09;;;;;;;15.07;6.10;;;7.70;99.90;;;;;;5096375;28;20125;-75
2021/12/18 06:28:35;;;;;;;15.85;5.68;;;7.60;99.90;;;;;;5096237;28;20228;-77
2021/12/18 06:31:01;;;;;;;17.67;6.13;;;7.90;99.90;;;;;;5080260;28;20134;-76
2021/12/18 06:33:30;;;;;;;14.40;5.75;;;8.00;99.90;;;;;;5097194;28;20082;-77
2021/12/18 06:35:56;;;;;;;13.23;5.65;;;7.60;99.90;;;;;;5080465;28;20388;-73
2021/12/18 06:38:22;;;;;;;14.80;5.80;;;8.10;99.90;;;;;;5097319;28;20096;-71
2021/12/18 06:40:48;;;;;;;17.38;6.82;;;;;;;;;;5096074;28;20040;-74
2021/12/18 06:43:15;;;;;;;16.80;7.85;;;;;;;;;;5097170;28;20057;-75
2021/12/18 06:45:41;;;;;;;15.85;6.38;;;7.80;99.90;;;;;;5097367;28;20126;-75
2021/12/18 06:48:07;;;;;;;15.40;7.05;;;7.50;99.90;;;;;;5095853;28;20043;-74
2021/12/18 06:50:35;;;;;;;14.60;6.90;;;7.90;99.90;;;;;;5096842;28;20039;-77
2021/12/18 06:53:02;;;;;;;27.45;8.90;;;7.90;99.90;;;;;;5096806;28;20085;-71
2021/12/18 06:55:27;;;;;;;25.63;9.98;;;8.20;99.90;;;;;;5080485;28;20044;-72
2021/12/18 06:57:53;;;;;;;17.63;7.40;;;7.80;99.90;;;;;;5076647;28;20043;-72
2021/12/18 07:00:21;;;;;;;17.00;6.53;;;7.90;99.90;;;;;;5076461;28;20039;-71
2021/12/18 07:02:47;;;;;;;14.30;6.20;;;8.00;99.90;;;;;;5092781;28;20547;-71
2021/12/18 07:05:13;;;;;;;12.48;5.97;;;8.50;99.90;;;;;;5099605;28;20039;-71
2021/12/18 07:07:39;;;;;;;15.55;7.82;;;7.90;99.90;;;;;;5129812;27;20039;-72
2021/12/18 07:10:08;;;;;;;19.15;7.68;;;8.10;99.90;;;;;;5095175;28;20666;-71
2021/12/18 07:12:34;;;;;;;13.18;5.97;;;8.00;99.90;;;;;;5095452;28;20071;-71
2021/12/18 07:15:00;;;;;;;10.52;4.20;;;7.60;99.90;;;;;;5095010;28;20063;-71
2021/12/18 07:17:26;;;;;;;11.70;4.45;;;10.60;99.90;;;;;;5083263;28;20066;-71
2021/12/18 07:19:52;;;;;;;13.25;4.90;;;8.20;99.90;;;;;;5079426;28;20063;-71
2021/12/18 07:22:17;;;;;;;11.35;5.05;;;7.70;99.90;;;;;;5096296;28;20051;-72
2021/12/18 07:24:43;;;;;;;13.68;5.40;;;7.80;99.90;;;;;;5095452;28;20042;-71
2021/12/18 07:27:10;;;;;;;11.63;4.88;;;8.10;99.90;;;;;;5095629;28;20079;-72
2021/12/18 07:29:35;;;;;;;14.70;5.88;;;8.20;99.90;;;;;;5096768;28;20441;-71
2021/12/18 07:32:01;;;;;;;17.95;8.40;;;7.80;99.90;;;;;;5090400;28;20040;-72
2021/12/18 07:34:27;;;;;;;14.80;6.93;;;8.20;99.90;;;;;;5096631;28;20039;-72
2021/12/18 07:36:53;;;;;;;13.38;5.57;;;8.60;99.90;;;;;;5096159;28;20043;-72
2021/12/18 07:39:19;;;;;;;10.30;5.07;;;8.20;99.90;;;;;;5095028;28;20101;-71
2021/12/18 07:41:45;;;;;;;11.15;5.53;;;9.10;99.90;;;;;;5096296;28;20043;-72
2021/12/18 07:44:10;;;;;;;10.13;4.43;;;8.20;99.90;;;;;;5094953;28;20046;-72
2021/12/18 07:46:37;;;;;;;15.25;4.97;;;7.80;99.90;;;;;;5095804;28;20047;-72
2021/12/18 07:49:07;;;;;;;7.93;3.55;;;8.40;99.90;;;;;;5094354;28;20134;-72
2021/12/18 07:51:33;;;;;;;10.48;5.35;;;7.90;99.90;;;;;;5094532;28;20130;-72
2021/12/18 07:53:59;;;;;;;18.98;11.32;;;9.30;99.90;;;;;;5093577;28;20414;-72
2021/12/18 07:56:25;;;;;;;14.98;8.43;;;;;;;;;;5095006;28;20506;-72
2021/12/18 07:58:52;;;;;;;16.38;7.20;;;8.30;99.90;;;;;;5094180;28;20092;-72
2021/12/18 08:01:18;;;;;;;17.85;7.25;;;8.10;99.90;;;;;;5094896;28;20078;-72
2021/12/18 08:03:44;;;;;;;32.53;17.55;;;8.00;99.90;;;;;;5095564;28;20098;-72
2021/12/18 08:06:10;;;;;;;16.60;8.93;;;8.00;99.90;;;;;;5087914;28;20043;-72
2021/12/18 08:08:36;;;;;;;14.40;5.80;;;8.10;99.90;;;;;;5092585;28;20377;-72
2021/12/18 08:11:03;;;;;;;9.60;4.80;;;8.30;99.90;;;;;;5094831;28;20048;-72
2021/12/18 08:13:28;;;;;;;8.77;4.93;;;8.00;99.90;;;;;;5085940;28;20035;-72
2021/12/18 08:15:54;;;;;;;14.30;4.38;;;;;;;;;;5076458;28;20393;-72
2021/12/18 08:18:20;;;;;;;10.73;4.50;;;8.40;99.90;;;;;;5074088;28;20040;-71
2021/12/18 08:20:46;;;;;;;13.00;4.75;;;8.60;99.90;;;;;;5088864;28;20036;-72
2021/12/18 08:23:12;;;;;;;11.98;4.85;;;8.50;99.90;;;;;;5088087;28;20043;-72
2021/12/18 08:25:38;;;;;;;10.27;4.78;;;8.80;99.90;;;;;;5075000;28;20091;-71
2021/12/18 08:28:05;;;;;;;10.23;5.13;;;;;;;;;;5091783;28;20134;-72
2021/12/18 08:30:33;;;;;;;13.07;5.45;;;8.80;99.90;;;;;;5092930;28;20491;-71
2021/12/18 08:33:00;;;;;;;15.05;6.00;;;8.60;99.90;;;;;;5092354;28;20051;-71
2021/12/18 08:35:27;;;;;;;9.70;5.15;;;8.50;99.90;;;;;;5092069;28;20039;-71
2021/12/18 08:37:54;;;;;;;10.07;4.57;;;8.60;99.90;;;;;;5091167;28;20492;-71
2021/12/18 08:40:20;;;;;;;12.07;4.93;;;;;;;;;;5109487;28;20064;-71
2021/12/18 08:42:46;;;;;;;10.43;4.38;;;;;;;;;;5081301;28;20055;-71
2021/12/18 08:45:13;;;;;;;11.48;3.92;;;8.80;99.90;;;;;;5072094;28;20044;-71
2021/12/18 08:47:39;;;;;;;10.40;4.38;;;8.40;99.90;;;;;;5105418;28;20131;-71
2021/12/18 08:50:06;;;;;;;14.40;3.95;;;8.20;99.90;;;;;;5055282;28;20126;-71
2021/12/18 08:52:32;;;;;;;10.05;4.32;;;8.90;99.90;;;;;;5076700;28;20151;-71
2021/12/18 08:55:00;;;;;;;12.50;5.10;;;8.50;99.90;;;;;;5091184;28;20122;-72
2021/12/18 08:57:27;;;;;;;8.65;4.78;;;8.50;99.90;;;;;;5075186;28;20035;-72
2021/12/18 08:59:52;;;;;;;11.57;5.82;;;8.50;99.90;;;;;;5092150;28;20115;-71
2021/12/18 09:02:18;;;;;;;8.25;4.18;;;8.40;99.90;;;;;;5091769;28;20174;-72
2021/12/18 09:04:44;;;;;;;16.05;8.85;;;8.50;99.90;;;;;;5074857;28;20168;-72
2021/12/18 09:07:09;;;;;;;13.25;5.63;;;8.50;99.90;;;;;;5091485;28;20051;-72
2021/12/18 09:09:36;;;;;;;12.95;4.82;;;8.40;99.90;;;;;;5091217;28;20043;-72
2021/12/18 09:12:02;;;;;;;10.85;4.72;;;8.20;99.90;;;;;;5091690;28;20046;-72
2021/12/18 09:14:27;;;;;;;12.05;5.45;;;8.70;99.90;;;;;;5075024;28;20796;-72
2021/12/18 09:16:53;;;;;;;10.93;4.30;;;8.80;99.90;;;;;;5090942;28;20395;-73
2021/12/18 09:19:20;;;;;;;9.68;3.70;;;8.40;99.90;;;;;;5091975;28;20050;-72
2021/12/18 09:21:46;;;;;;;9.80;4.38;;;8.50;99.90;;;;;;5087754;28;20043;-72
2021/12/18 09:24:12;;;;;;;10.13;4.28;;;8.10;99.90;;;;;;5090138;28;20078;-73
2021/12/18 09:26:38;;;;;;;9.68;3.72;;;8.30;99.90;;;;;;5074027;28;20680;-72
2021/12/18 09:29:04;;;;;;;6.70;3.38;;;8.10;99.90;;;;;;5091291;28;20085;-71
2021/12/18 09:31:29;;;;;;;7.43;3.38;;;8.30;99.90;;;;;;5074137;28;20043;-71
2021/12/18 09:33:55;;;;;;;6.75;3.15;;;8.60;99.90;;;;;;5092012;28;20403;-71
2021/12/18 09:36:21;;;;;;;17.48;8.05;;;8.10;99.90;;;;;;5074554;28;20035;-71
2021/12/18 09:38:46;;;;;;;11.13;4.60;;;8.20;99.90;;;;;;5090324;28;20046;-73
2021/12/18 09:41:12;;;;;;;10.85;6.28;;;8.10;99.90;;;;;;5091787;28;20080;-72
2021/12/18 09:43:38;;;;;;;6.30;2.50;;;;;;;;;;5091171;28;20073;-72
2021/12/18 09:46:07;;;;;;;4.78;2.03;;;8.40;99.90;;;;;;5091263;28;20047;-71
2021/12/18 09:48:34;;;;;;;6.45;2.88;;;8.20;99.90;;;;;;5091985;28;20100;-73
2021/12/18 09:51:08;;;;;;;4.95;2.10;;;8.30;99.90;;;;;;5090401;28;20085;-72
2021/12/18 09:53:35;;;;;;;5.22;2.28;;;8.30;99.90;;;;;;5091761;28;20052;-75
2021/12/18 09:56:04;;;;;;;7.88;2.75;;;7.90;99.90;;;;;;5073608;28;20040;-75
2021/12/18 09:58:29;;;;;;;7.22;3.15;;;8.30;99.90;;;;;;5089883;28;20046;-74
2021/12/18 10:00:55;;;;;;;8.88;3.10;;;8.40;99.90;;;;;;5073636;28;20467;-73
2021/12/18 10:03:21;;;;;;;8.38;3.20;;;8.50;99.90;;;;;;5091144;28;20032;-70
2021/12/18 10:05:47;;;;;;;8.80;3.35;;;8.00;99.90;;;;;;5090485;28;20039;-75
2021/12/18 10:08:18;;;;;;;10.63;3.33;;;8.60;99.90;;;;;;5091926;28;20044;-71
2021/12/18 10:11:06;;;;;;;11.60;4.63;;;8.20;99.90;;;;;;5091088;28;20058;-74
2021/12/18 10:13:52;;;;;;;10.32;4.28;;;8.20;99.90;;;;;;5074544;28;20040;-72
2021/12/18 10:16:18;;;;;;;8.13;3.47;;;8.10;99.90;;;;;;5061919;28;20051;-71
2021/12/18 10:18:44;;;;;;;6.97;3.72;;;8.30;99.90;;;;;;5088466;28;20043;-77
2021/12/18 10:21:12;;;;;;;13.77;4.70;;;8.60;99.90;;;;;;5090040;28;20122;-72
2021/12/18 10:23:41;;;;;;;9.57;4.53;;;8.20;99.90;;;;;;5091266;28;20039;-72
2021/12/18 10:26:06;;;;;;;9.43;4.47;;;8.30;99.90;;;;;;5087711;28;20055;-71
2021/12/18 10:28:44;;;;;;;10.55;4.80;;;8.30;99.90;;;;;;5087429;28;20071;-76
2021/12/18 10:31:09;;;;;;;16.88;5.15;;;8.80;99.90;;;;;;5076156;28;20130;-75
2021/12/18 10:33:35;;;;;;;14.25;5.47;;;8.50;99.90;;;;;;5077062;28;20440;-70
2021/12/18 10:36:02;;;;;;;10.98;5.35;;;8.50;99.90;;;;;;5093658;28;20384;-70
2021/12/18 10:38:42;;;;;;;11.60;5.40;;;8.20;99.90;;;;;;5094859;28;20411;-71
2021/12/18 10:41:29;;;;;;;14.38;5.63;;;8.80;99.90;;;;;;5076759;28;20047;-71
2021/12/18 10:43:59;;;;;;;12.43;4.50;;;8.60;99.90;;;;;;5093743;28;20050;-71
2021/12/18 10:46:26;;;;;;;12.10;4.95;;;8.30;99.90;;;;;;5095201;28;20130;-72
2021/12/18 10:48:57;;;;;;;13.82;4.70;;;8.40;99.90;;;;;;5092999;28;20051;-73
2021/12/18 10:51:24;;;;;;;11.45;5.20;;;8.60;99.90;;;;;;5090487;28;20062;-71
2021/12/18 10:53:50;;;;;;;16.15;5.30;;;8.40;99.90;;;;;;5094395;28;20028;-71
2021/12/18 10:56:16;;;;;;;11.07;5.05;;;;;;;;;;5076896;28;20097;-72
2021/12/18 10:58:42;;;;;;;10.93;4.22;;;;;;;;;;5094059;28;20043;-72
2021/12/18 11:01:15;;;;;;;9.70;4.68;;;8.70;99.90;;;;;;5093206;28;20133;-72
2021/12/18 11:03:51;;;;;;;15.50;4.63;;;9.10;99.90;;;;;;5094091;28;20043;-72
2021/12/18 11:06:17;;;;;;;10.55;4.20;;;;;;;;;;5093330;28;20430;-72
2021/12/18 11:09:09;;;;;;;15.60;4.45;;;8.60;99.90;;;;;;5092803;28;20055;-72
2021/12/18 11:14:13;;;;;;;10.55;3.55;;;;;;;;;;5093646;28;20043;-71
2021/12/18 11:16:40;;;;;;;8.48;3.30;;;;;;;;;;5093401;28;20118;-70
2021/12/18 11:19:08;;;;;;;8.85;3.17;;;9.00;99.90;;;;;;5092976;28;20152;-71
2021/12/18 11:21:34;;;;;;;10.60;3.05;;;;;;;;;;5093673;28;20047;-70
2021/12/18 11:24:06;;;;;;;7.05;3.30;;;;;;;;;;5092668;28;20063;-71
2021/12/18 11:26:41;;;;;;;9.13;3.33;;;;;;;;;;5092473;28;20039;-71
2021/12/18 11:29:11;;;;;;;9.68;3.63;;;;;;;;;;5093244;28;20063;-72
2021/12/18 11:31:38;;;;;;;9.65;3.40;;;;;;;;;;5093600;28;20119;-69
2021/12/18 11:34:05;;;;;;;7.85;3.53;;;;;;;;;;5076556;28;20476;-70
2021/12/18 11:36:32;;;;;;;10.45;3.30;;;;;;;;;;5092811;28;20039;-70
2021/12/18 11:38:58;;;;;;;8.50;2.58;;;;;;;;;;5092349;28;20051;-70
2021/12/18 11:41:24;;;;;;;11.63;3.47;;;;;;;;;;5091427;28;20403;-70
2021/12/18 11:43:50;;;;;;;6.95;2.90;;;;;;;;;;5091949;28;20046;-70
2021/12/18 11:46:32;;;;;;;7.63;2.95;;;;;;;;;;5091832;28;20042;-70
2021/12/18 11:49:03;;;;;;;11.77;3.25;;;;;;;;;;5076425;28;20042;-69
2021/12/18 11:51:29;;;;;;;11.25;3.17;;;;;;;;;;5092171;28;20066;-68
2021/12/18 11:53:56;;;;;;;10.68;3.95;;;;;;;;;;5064355;28;20047;-71
2021/12/18 11:56:22;;;;;;;9.55;3.47;;;;;;;;;;5075288;28;20117;-71
2021/12/18 11:58:49;;;;;;;12.00;3.30;;;;;;;;;;5075222;28;20044;-70
2021/12/18 12:01:15;;;;;;;10.10;3.38;;;;;;;;;;5095587;28;20101;-71
2021/12/18 12:03:43;;;;;;;7.32;2.75;;;;;;;;;;5079166;28;20078;-71
2021/12/18 12:06:30;;;;;;;14.82;6.60;;;;;;;;;;5094298;28;20507;-71
2021/12/18 12:09:21;;;;;;;6.28;2.60;;;;;;;;;;5095539;28;20396;-71
2021/12/18 12:11:52;;;;;;;8.55;2.72;;;;;;;;;;5094827;28;20507;-71
2021/12/18 12:14:20;;;;;;;7.53;2.50;;;;;;;;;;5095060;28;20047;-70
2021/12/18 12:16:45;;;;;;;7.20;2.67;;;;;;;;;;5095628;28;20118;-70
2021/12/18 12:19:13;;;;;;;9.23;3.45;;;;;;;;;;5077505;28;20127;-73
2021/12/18 12:21:41;;;;;;;9.05;3.70;;;;;;;;;;5095504;28;20043;-70
2021/12/18 12:24:08;;;;;;;7.70;2.47;;;;;;;;;;5095283;28;20051;-73
2021/12/18 12:26:34;;;;;;;6.95;2.50;;;;;;;;;;5093869;28;20044;-70
2021/12/18 12:29:00;;;;;;;8.93;3.17;;;;;;;;;;5077725;28;20083;-70
2021/12/18 12:31:27;;;;;;;10.82;3.65;;;;;;;;;;5094687;28;20047;-70
2021/12/18 12:34:13;;;;;;;10.32;4.32;;;;;;;;;;5094318;28;20416;-70
2021/12/18 12:36:45;;;;;;;9.85;3.35;;;;;;;;;;5095228;28;20127;-70
2021/12/18 12:39:12;;;;;;;7.05;2.45;;;;;;;;;;5095082;28;20043;-69
2021/12/18 12:41:42;;;;;;;7.47;2.95;;;;;;;;;;5076221;28;20040;-70
2021/12/18 12:44:26;;;;;;;10.90;3.50;;;;;;;;;;5094358;28;20043;-72
2021/12/18 12:47:11;;;;;;;7.30;3.35;;;;;;;;;;5094057;28;20051;-71
2021/12/18 12:49:37;;;;;;;8.55;3.20;;;;;;;;;;5094619;28;20043;-71
2021/12/18 12:52:04;;;;;;;9.63;3.70;;;;;;;;;;5093890;28;20093;-72
2021/12/18 12:54:49;;;;;;;8.88;3.10;;;;;;;;;;5094366;28;20361;-71
2021/12/18 12:57:30;;;;;;;6.53;3.08;;;;;;;;;;5094814;28;20384;-71
2021/12/18 12:59:59;;;;;;;11.25;3.25;;;;;;;;;;5077308;28;20044;-71
2021/12/18 13:02:26;;;;;;;9.65;3.30;;;;;;;;;;5077079;28;20039;-71
2021/12/18 13:05:03;;;;;;;7.45;2.00;;;;;;;;;;5094314;28;20043;-71
2021/12/18 13:07:29;;;;;;;6.53;2.33;;;;;;;;;;5078162;28;20051;-71
2021/12/18 13:09:55;;;;;;;8.88;3.22;;;;;;;;;;5093845;28;20517;-71
2021/12/18 13:12:21;;;;;;;7.38;3.20;;;;;;;;;;5077465;28;20035;-71
2021/12/18 13:14:47;;;;;;;6.28;2.42;;;;;;;;;;5093436;28;20128;-71
2021/12/18 13:17:25;;;;;;;8.18;3.40;;;;;;;;;;5094563;28;20035;-71
2021/12/18 13:19:58;;;;;;;7.22;3.00;;;;;;;;;;5077796;28;20039;-72
2021/12/18 13:22:29;;;;;;;7.90;2.78;;;;;;;;;;5093809;28;20373;-71
2021/12/18 13:25:02;;;;;;;14.13;3.30;;;;;;;;;;5093881;28;20047;-71
2021/12/18 13:27:28;;;;;;;7.97;3.30;;;;;;;;;;5094430;28;20060;-71
2021/12/18 13:30:09;;;;;;;9.02;3.47;;;;;;;;;;5093376;28;20052;-72
2021/12/18 13:32:35;;;;;;;12.55;4.07;;;;;;;;;;5094426;28;20075;-71
2021/12/18 13:35:01;;;;;;;8.52;3.50;;;;;;;;;;5093933;28;20126;-71
2021/12/18 13:37:27;;;;;;;10.85;4.10;;;;;;;;;;5093726;28;20126;-71
2021/12/18 13:39:54;;;;;;;8.57;3.45;;;;;;;;;;5093820;28;20384;-70
2021/12/18 13:42:24;;;;;;;6.85;3.10;;;;;;;;;;5075918;28;20040;-67
2021/12/18 13:44:53;;;;;;;9.25;3.38;;;;;;;;;;5093522;28;20078;-69
2021/12/18 13:47:19;;;;;;;9.73;3.47;;;;;;;;;;5084307;28;20036;-69
2021/12/18 13:49:45;;;;;;;6.00;2.65;;;;;;;;;;5081665;28;20042;-71
2021/12/18 13:52:11;;;;;;;8.55;3.70;;;9.00;99.90;;;;;;5075607;28;20039;-72
2021/12/18 13:54:38;;;;;;;6.35;3.00;;;9.10;99.90;;;;;;5077257;28;20036;-71
2021/12/18 13:57:04;;;;;;;8.50;3.20;;;9.50;99.90;;;;;;5080515;28;20040;-75
2021/12/18 13:59:31;;;;;;;7.60;3.22;;;9.90;99.90;;;;;;5081833;28;20129;-66
2021/12/18 14:02:03;;;;;;;6.55;2.85;;;;;;;;;;5081824;28;20046;-70
2021/12/18 14:04:29;;;;;;;7.38;2.67;;;;;;;;;;5074976;28;20100;-70
2021/12/18 14:06:56;;;;;;;8.18;2.58;;;;;;;;;;5085836;28;20050;-70